sensor_id;sensor_type;location;lat;lon;timestamp;P1;durP1;ratioP1;P2;durP2;ratioP2
10452;SDS011;5274;51.992;8.518;2022-12-18T00:01:43;4.63;;;3.60;;
10452;SDS011;5274;51.992;8.518;2022-12-18T00:04:03;4.87;;;3.37;;
10452;SDS011;5274;51.992;8.518;2022-12-18T00:06:30;4.90;;;3.00;;
10452;SDS011;5274;51.992;8.518;2022-12-18T00:08:58;6.70;;;3.90;;
10452;SDS011;5274;51.992;8.518;2022-12-18T00:11:27;6.40;;;3.07;;
10452;SDS011;5274;51.992;8.518;2022-12-18T00:13:55;4.67;;;3.37;;
10452;SDS011;5274;51.992;8.518;2022-12-18T00:16:23;9.10;;;3.77;;
10452;SDS011;5274;51.992;8.518;2022-12-18T00:18:50;6.67;;;3.20;;
10452;SDS011;5274;51.992;8.518;2022-12-18T00:21:18;4.07;;;3.17;;
10452;SDS011;5274;51.992;8.518;2022-12-18T00:23:44;4.27;;;3.00;;
10452;SDS011;5274;51.992;8.518;2022-12-18T00:26:12;5.03;;;3.10;;
10452;SDS011;5274;51.992;8.518;2022-12-18T00:28:40;5.40;;;3.07;;
10452;SDS011;5274;51.992;8.518;2022-12-18T00:31:10;7.23;;;3.03;;
10452;SDS011;5274;51.992;8.518;2022-12-18T00:33:37;3.30;;;2.83;;
10452;SDS011;5274;51.992;8.518;2022-12-18T00:36:04;3.20;;;2.40;;
10452;SDS011;5274;51.992;8.518;2022-12-18T00:38:32;3.43;;;2.73;;
10452;SDS011;5274;51.992;8.518;2022-12-18T00:40:58;3.97;;;2.70;;
10452;SDS011;5274;51.992;8.518;2022-12-18T00:43:24;3.53;;;2.77;;
10452;SDS011;5274;51.992;8.518;2022-12-18T00:45:49;3.73;;;2.73;;
10452;SDS011;5274;51.992;8.518;2022-12-18T00:48:15;3.97;;;3.37;;
10452;SDS011;5274;51.992;8.518;2022-12-18T00:50:41;5.17;;;3.33;;
10452;SDS011;5274;51.992;8.518;2022-12-18T00:53:06;4.83;;;3.20;;
10452;SDS011;5274;51.992;8.518;2022-12-18T00:55:32;9.70;;;3.40;;
10452;SDS011;5274;51.992;8.518;2022-12-18T00:57:57;7.03;;;3.13;;
10452;SDS011;5274;51.992;8.518;2022-12-18T01:00:23;7.00;;;3.23;;
10452;SDS011;5274;51.992;8.518;2022-12-18T01:02:48;5.60;;;3.60;;
10452;SDS011;5274;51.992;8.518;2022-12-18T01:05:14;6.00;;;4.13;;
10452;SDS011;5274;51.992;8.518;2022-12-18T01:07:40;5.33;;;3.47;;
10452;SDS011;5274;51.992;8.518;2022-12-18T01:10:07;5.80;;;3.80;;
10452;SDS011;5274;51.992;8.518;2022-12-18T01:12:34;4.70;;;2.90;;
10452;SDS011;5274;51.992;8.518;2022-12-18T01:15:00;6.17;;;3.60;;
10452;SDS011;5274;51.992;8.518;2022-12-18T01:17:26;4.47;;;3.13;;
10452;SDS011;5274;51.992;8.518;2022-12-18T01:19:51;6.40;;;3.30;;
10452;SDS011;5274;51.992;8.518;2022-12-18T01:22:17;5.27;;;3.50;;
10452;SDS011;5274;51.992;8.518;2022-12-18T01:24:43;5.13;;;2.97;;
10452;SDS011;5274;51.992;8.518;2022-12-18T01:27:08;5.07;;;3.40;;
10452;SDS011;5274;51.992;8.518;2022-12-18T01:29:34;6.00;;;3.47;;
10452;SDS011;5274;51.992;8.518;2022-12-18T01:31:59;5.17;;;3.23;;
10452;SDS011;5274;51.992;8.518;2022-12-18T01:34:25;9.07;;;3.30;;
10452;SDS011;5274;51.992;8.518;2022-12-18T01:36:50;4.93;;;3.07;;
10452;SDS011;5274;51.992;8.518;2022-12-18T01:39:17;9.87;;;3.00;;
10452;SDS011;5274;51.992;8.518;2022-12-18T01:41:43;4.63;;;3.00;;
10452;SDS011;5274;51.992;8.518;2022-12-18T01:44:50;5.07;;;3.50;;
10452;SDS011;5274;51.992;8.518;2022-12-18T01:47:52;5.37;;;3.27;;
10452;SDS011;5274;51.992;8.518;2022-12-18T01:50:42;3.70;;;2.70;;
10452;SDS011;5274;51.992;8.518;2022-12-18T01:53:10;5.47;;;3.00;;
10452;SDS011;5274;51.992;8.518;2022-12-18T01:55:46;3.37;;;2.87;;
10452;SDS011;5274;51.992;8.518;2022-12-18T01:58:14;5.50;;;3.13;;
10452;SDS011;5274;51.992;8.518;2022-12-18T02:00:41;3.17;;;2.80;;
10452;SDS011;5274;51.992;8.518;2022-12-18T02:03:06;4.67;;;2.73;;
10452;SDS011;5274;51.992;8.518;2022-12-18T02:05:35;3.03;;;2.33;;
10452;SDS011;5274;51.992;8.518;2022-12-18T02:08:20;4.27;;;2.43;;
10452;SDS011;5274;51.992;8.518;2022-12-18T02:18:47;4.00;;;2.80;;
10452;SDS011;5274;51.992;8.518;2022-12-18T02:24:17;5.00;;;2.77;;
10452;SDS011;5274;51.992;8.518;2022-12-18T02:26:44;4.40;;;3.10;;
10452;SDS011;5274;51.992;8.518;2022-12-18T02:29:18;3.70;;;2.60;;
10452;SDS011;5274;51.992;8.518;2022-12-18T02:31:51;3.33;;;2.63;;
10452;SDS011;5274;51.992;8.518;2022-12-18T02:34:20;3.83;;;2.90;;
10452;SDS011;5274;51.992;8.518;2022-12-18T02:36:48;6.13;;;2.80;;
10452;SDS011;5274;51.992;8.518;2022-12-18T02:39:16;4.90;;;2.60;;
10452;SDS011;5274;51.992;8.518;2022-12-18T02:41:45;5.50;;;2.77;;
10452;SDS011;5274;51.992;8.518;2022-12-18T02:44:12;3.73;;;2.40;;
10452;SDS011;5274;51.992;8.518;2022-12-18T02:54:23;4.53;;;2.80;;
10452;SDS011;5274;51.992;8.518;2022-12-18T02:57:01;3.67;;;2.70;;
10452;SDS011;5274;51.992;8.518;2022-12-18T02:59:52;5.03;;;3.00;;
10452;SDS011;5274;51.992;8.518;2022-12-18T03:02:43;3.87;;;2.60;;
10452;SDS011;5274;51.992;8.518;2022-12-18T03:05:19;6.50;;;2.60;;
10452;SDS011;5274;51.992;8.518;2022-12-18T03:07:52;5.40;;;3.50;;
10452;SDS011;5274;51.992;8.518;2022-12-18T03:10:25;3.10;;;2.67;;
10452;SDS011;5274;51.992;8.518;2022-12-18T03:12:54;5.10;;;2.67;;
10452;SDS011;5274;51.992;8.518;2022-12-18T03:15:48;4.17;;;2.93;;
10452;SDS011;5274;51.992;8.518;2022-12-18T03:18:19;6.07;;;3.20;;
10452;SDS011;5274;51.992;8.518;2022-12-18T03:20:51;6.97;;;3.23;;
10452;SDS011;5274;51.992;8.518;2022-12-18T03:23:22;4.63;;;2.93;;
10452;SDS011;5274;51.992;8.518;2022-12-18T03:25:53;4.23;;;2.83;;
10452;SDS011;5274;51.992;8.518;2022-12-18T03:28:22;6.70;;;2.70;;
10452;SDS011;5274;51.992;8.518;2022-12-18T03:30:49;4.57;;;3.00;;
10452;SDS011;5274;51.992;8.518;2022-12-18T03:33:24;5.27;;;2.63;;
10452;SDS011;5274;51.992;8.518;2022-12-18T03:35:54;4.60;;;2.80;;
10452;SDS011;5274;51.992;8.518;2022-12-18T03:38:20;4.27;;;2.90;;
10452;SDS011;5274;51.992;8.518;2022-12-18T03:40:51;3.80;;;2.50;;
10452;SDS011;5274;51.992;8.518;2022-12-18T03:43:55;5.10;;;3.23;;
10452;SDS011;5274;51.992;8.518;2022-12-18T03:46:41;4.37;;;2.40;;
10452;SDS011;5274;51.992;8.518;2022-12-18T03:49:42;4.00;;;2.70;;
10452;SDS011;5274;51.992;8.518;2022-12-18T03:55:03;7.80;;;2.67;;
10452;SDS011;5274;51.992;8.518;2022-12-18T03:57:32;4.87;;;3.37;;
10452;SDS011;5274;51.992;8.518;2022-12-18T04:00:04;4.97;;;2.90;;
10452;SDS011;5274;51.992;8.518;2022-12-18T04:02:34;4.43;;;2.77;;
10452;SDS011;5274;51.992;8.518;2022-12-18T04:05:03;5.20;;;2.93;;
10452;SDS011;5274;51.992;8.518;2022-12-18T04:07:31;5.43;;;3.03;;
10452;SDS011;5274;51.992;8.518;2022-12-18T04:09:58;6.63;;;3.30;;
10452;SDS011;5274;51.992;8.518;2022-12-18T04:12:26;4.43;;;2.83;;
10452;SDS011;5274;51.992;8.518;2022-12-18T04:14:53;5.63;;;3.23;;
10452;SDS011;5274;51.992;8.518;2022-12-18T04:17:19;6.30;;;2.90;;
10452;SDS011;5274;51.992;8.518;2022-12-18T04:19:45;6.27;;;3.17;;
10452;SDS011;5274;51.992;8.518;2022-12-18T04:22:10;5.20;;;3.10;;
10452;SDS011;5274;51.992;8.518;2022-12-18T04:24:36;4.37;;;2.80;;
10452;SDS011;5274;51.992;8.518;2022-12-18T04:27:02;5.00;;;2.90;;
10452;SDS011;5274;51.992;8.518;2022-12-18T04:29:28;5.97;;;3.00;;
10452;SDS011;5274;51.992;8.518;2022-12-18T04:31:53;5.27;;;3.30;;
10452;SDS011;5274;51.992;8.518;2022-12-18T04:34:19;5.73;;;3.20;;
10452;SDS011;5274;51.992;8.518;2022-12-18T04:36:45;7.20;;;4.10;;
10452;SDS011;5274;51.992;8.518;2022-12-18T04:39:11;6.70;;;3.63;;
10452;SDS011;5274;51.992;8.518;2022-12-18T04:41:37;6.97;;;3.50;;
10452;SDS011;5274;51.992;8.518;2022-12-18T04:44:02;6.57;;;3.67;;
10452;SDS011;5274;51.992;8.518;2022-12-18T04:46:28;8.10;;;3.50;;
10452;SDS011;5274;51.992;8.518;2022-12-18T04:48:53;5.30;;;3.70;;
10452;SDS011;5274;51.992;8.518;2022-12-18T04:51:19;6.97;;;3.70;;
10452;SDS011;5274;51.992;8.518;2022-12-18T04:53:45;6.83;;;4.13;;
10452;SDS011;5274;51.992;8.518;2022-12-18T04:56:11;4.47;;;3.10;;
10452;SDS011;5274;51.992;8.518;2022-12-18T04:58:39;6.33;;;3.70;;
10452;SDS011;5274;51.992;8.518;2022-12-18T05:01:06;6.07;;;3.83;;
10452;SDS011;5274;51.992;8.518;2022-12-18T05:03:32;7.13;;;3.70;;
10452;SDS011;5274;51.992;8.518;2022-12-18T05:05:59;6.13;;;3.57;;
10452;SDS011;5274;51.992;8.518;2022-12-18T05:08:24;6.30;;;3.90;;
10452;SDS011;5274;51.992;8.518;2022-12-18T05:10:57;5.07;;;3.60;;
10452;SDS011;5274;51.992;8.518;2022-12-18T05:13:30;8.87;;;4.07;;
10452;SDS011;5274;51.992;8.518;2022-12-18T05:15:57;6.50;;;3.70;;
10452;SDS011;5274;51.992;8.518;2022-12-18T05:18:23;9.40;;;3.80;;
10452;SDS011;5274;51.992;8.518;2022-12-18T05:20:49;7.33;;;4.00;;
10452;SDS011;5274;51.992;8.518;2022-12-18T05:23:16;6.63;;;4.00;;
10452;SDS011;5274;51.992;8.518;2022-12-18T05:25:42;5.93;;;4.00;;
10452;SDS011;5274;51.992;8.518;2022-12-18T05:28:07;9.57;;;4.17;;
10452;SDS011;5274;51.992;8.518;2022-12-18T05:30:33;6.17;;;3.53;;
10452;SDS011;5274;51.992;8.518;2022-12-18T05:32:59;6.13;;;3.40;;
10452;SDS011;5274;51.992;8.518;2022-12-18T05:35:24;7.33;;;4.83;;
10452;SDS011;5274;51.992;8.518;2022-12-18T05:37:50;7.47;;;3.90;;
10452;SDS011;5274;51.992;8.518;2022-12-18T05:40:15;7.13;;;4.83;;
10452;SDS011;5274;51.992;8.518;2022-12-18T05:42:41;8.20;;;4.23;;
10452;SDS011;5274;51.992;8.518;2022-12-18T05:45:06;9.10;;;4.23;;
10452;SDS011;5274;51.992;8.518;2022-12-18T05:47:32;9.07;;;4.63;;
10452;SDS011;5274;51.992;8.518;2022-12-18T05:49:58;8.30;;;4.73;;
10452;SDS011;5274;51.992;8.518;2022-12-18T05:52:23;9.30;;;4.93;;
10452;SDS011;5274;51.992;8.518;2022-12-18T05:54:49;7.90;;;4.80;;
10452;SDS011;5274;51.992;8.518;2022-12-18T05:57:15;8.20;;;5.13;;
10452;SDS011;5274;51.992;8.518;2022-12-18T05:59:40;8.17;;;4.53;;
10452;SDS011;5274;51.992;8.518;2022-12-18T06:02:06;7.23;;;4.60;;
10452;SDS011;5274;51.992;8.518;2022-12-18T06:04:31;6.57;;;4.20;;
10452;SDS011;5274;51.992;8.518;2022-12-18T06:06:57;7.10;;;4.33;;
10452;SDS011;5274;51.992;8.518;2022-12-18T06:09:22;11.33;;;5.57;;
10452;SDS011;5274;51.992;8.518;2022-12-18T06:11:48;7.37;;;4.27;;
10452;SDS011;5274;51.992;8.518;2022-12-18T06:14:16;10.63;;;5.67;;
10452;SDS011;5274;51.992;8.518;2022-12-18T06:16:42;9.33;;;5.13;;
10452;SDS011;5274;51.992;8.518;2022-12-18T06:19:07;9.90;;;5.10;;
10452;SDS011;5274;51.992;8.518;2022-12-18T06:21:38;16.20;;;6.57;;
10452;SDS011;5274;51.992;8.518;2022-12-18T06:24:04;11.27;;;5.80;;
10452;SDS011;5274;51.992;8.518;2022-12-18T06:26:30;9.10;;;5.07;;
10452;SDS011;5274;51.992;8.518;2022-12-18T06:28:55;11.23;;;4.63;;
10452;SDS011;5274;51.992;8.518;2022-12-18T06:31:21;7.53;;;4.60;;
10452;SDS011;5274;51.992;8.518;2022-12-18T06:33:47;9.33;;;5.20;;
10452;SDS011;5274;51.992;8.518;2022-12-18T06:36:13;10.07;;;5.07;;
10452;SDS011;5274;51.992;8.518;2022-12-18T06:38:40;10.57;;;4.80;;
10452;SDS011;5274;51.992;8.518;2022-12-18T06:41:08;8.07;;;4.70;;
10452;SDS011;5274;51.992;8.518;2022-12-18T06:43:34;8.23;;;4.40;;
10452;SDS011;5274;51.992;8.518;2022-12-18T06:46:00;7.43;;;4.13;;
10452;SDS011;5274;51.992;8.518;2022-12-18T06:48:26;6.13;;;4.00;;
10452;SDS011;5274;51.992;8.518;2022-12-18T06:50:52;8.37;;;4.20;;
10452;SDS011;5274;51.992;8.518;2022-12-18T06:53:18;9.20;;;4.47;;
10452;SDS011;5274;51.992;8.518;2022-12-18T06:55:43;11.87;;;4.77;;
10452;SDS011;5274;51.992;8.518;2022-12-18T06:58:09;6.13;;;4.07;;
10452;SDS011;5274;51.992;8.518;2022-12-18T07:00:34;5.87;;;4.20;;
10452;SDS011;5274;51.992;8.518;2022-12-18T07:03:00;8.93;;;4.13;;
10452;SDS011;5274;51.992;8.518;2022-12-18T07:05:26;6.57;;;4.00;;
10452;SDS011;5274;51.992;8.518;2022-12-18T07:07:51;7.87;;;4.30;;
10452;SDS011;5274;51.992;8.518;2022-12-18T07:10:17;8.57;;;4.10;;
10452;SDS011;5274;51.992;8.518;2022-12-18T07:12:43;8.00;;;3.60;;
10452;SDS011;5274;51.992;8.518;2022-12-18T07:15:08;9.13;;;3.80;;
10452;SDS011;5274;51.992;8.518;2022-12-18T07:17:34;10.73;;;4.23;;
10452;SDS011;5274;51.992;8.518;2022-12-18T07:19:59;6.93;;;3.67;;
10452;SDS011;5274;51.992;8.518;2022-12-18T07:22:25;8.60;;;3.53;;
10452;SDS011;5274;51.992;8.518;2022-12-18T07:24:51;5.27;;;3.70;;
10452;SDS011;5274;51.992;8.518;2022-12-18T07:27:17;5.47;;;3.60;;
10452;SDS011;5274;51.992;8.518;2022-12-18T07:29:42;6.87;;;3.63;;
10452;SDS011;5274;51.992;8.518;2022-12-18T07:32:08;4.97;;;3.37;;
10452;SDS011;5274;51.992;8.518;2022-12-18T07:34:34;7.63;;;3.70;;
10452;SDS011;5274;51.992;8.518;2022-12-18T07:36:59;5.50;;;3.00;;
10452;SDS011;5274;51.992;8.518;2022-12-18T07:39:25;4.60;;;3.10;;
10452;SDS011;5274;51.992;8.518;2022-12-18T07:41:50;4.70;;;3.43;;
10452;SDS011;5274;51.992;8.518;2022-12-18T07:44:35;4.87;;;2.60;;
10452;SDS011;5274;51.992;8.518;2022-12-18T07:47:00;5.63;;;3.20;;
10452;SDS011;5274;51.992;8.518;2022-12-18T07:49:27;6.80;;;3.77;;
10452;SDS011;5274;51.992;8.518;2022-12-18T07:51:53;5.20;;;3.23;;
10452;SDS011;5274;51.992;8.518;2022-12-18T07:54:20;5.00;;;3.27;;
10452;SDS011;5274;51.992;8.518;2022-12-18T07:56:46;5.57;;;3.50;;
10452;SDS011;5274;51.992;8.518;2022-12-18T07:59:12;8.07;;;3.30;;
10452;SDS011;5274;51.992;8.518;2022-12-18T08:01:37;5.70;;;3.70;;
10452;SDS011;5274;51.992;8.518;2022-12-18T08:04:03;6.87;;;3.50;;
10452;SDS011;5274;51.992;8.518;2022-12-18T08:06:29;6.23;;;3.23;;
10452;SDS011;5274;51.992;8.518;2022-12-18T08:08:55;5.23;;;3.53;;
10452;SDS011;5274;51.992;8.518;2022-12-18T08:11:21;6.20;;;3.63;;
10452;SDS011;5274;51.992;8.518;2022-12-18T08:13:48;6.73;;;3.33;;
10452;SDS011;5274;51.992;8.518;2022-12-18T08:16:14;5.37;;;3.20;;
10452;SDS011;5274;51.992;8.518;2022-12-18T08:18:39;5.53;;;3.10;;
10452;SDS011;5274;51.992;8.518;2022-12-18T08:21:18;7.00;;;3.30;;
10452;SDS011;5274;51.992;8.518;2022-12-18T08:23:57;5.27;;;3.20;;
10452;SDS011;5274;51.992;8.518;2022-12-18T08:26:24;5.77;;;3.23;;
10452;SDS011;5274;51.992;8.518;2022-12-18T08:28:53;6.23;;;3.27;;
10452;SDS011;5274;51.992;8.518;2022-12-18T08:31:23;4.80;;;3.20;;
10452;SDS011;5274;51.992;8.518;2022-12-18T08:33:50;3.87;;;3.17;;
10452;SDS011;5274;51.992;8.518;2022-12-18T08:36:17;5.83;;;3.50;;
10452;SDS011;5274;51.992;8.518;2022-12-18T08:38:44;5.33;;;3.63;;
10452;SDS011;5274;51.992;8.518;2022-12-18T08:41:11;6.33;;;3.67;;
10452;SDS011;5274;51.992;8.518;2022-12-18T08:43:37;5.37;;;3.27;;
10452;SDS011;5274;51.992;8.518;2022-12-18T08:46:23;7.57;;;3.10;;
10452;SDS011;5274;51.992;8.518;2022-12-18T08:48:53;6.33;;;4.20;;
10452;SDS011;5274;51.992;8.518;2022-12-18T08:51:19;8.77;;;3.63;;
10452;SDS011;5274;51.992;8.518;2022-12-18T08:53:45;4.70;;;3.03;;
10452;SDS011;5274;51.992;8.518;2022-12-18T08:56:11;6.93;;;3.43;;
10452;SDS011;5274;51.992;8.518;2022-12-18T08:58:37;4.37;;;3.60;;
10452;SDS011;5274;51.992;8.518;2022-12-18T09:01:03;6.60;;;3.63;;
10452;SDS011;5274;51.992;8.518;2022-12-18T09:03:31;5.30;;;3.40;;
10452;SDS011;5274;51.992;8.518;2022-12-18T09:05:58;6.03;;;3.30;;
10452;SDS011;5274;51.992;8.518;2022-12-18T09:08:24;6.73;;;3.80;;
10452;SDS011;5274;51.992;8.518;2022-12-18T09:10:50;7.33;;;3.33;;
10452;SDS011;5274;51.992;8.518;2022-12-18T09:13:16;6.57;;;3.80;;
10452;SDS011;5274;51.992;8.518;2022-12-18T09:15:43;4.53;;;3.23;;
10452;SDS011;5274;51.992;8.518;2022-12-18T09:18:11;4.37;;;2.80;;
10452;SDS011;5274;51.992;8.518;2022-12-18T09:20:38;5.57;;;3.20;;
10452;SDS011;5274;51.992;8.518;2022-12-18T09:23:04;7.00;;;3.53;;
10452;SDS011;5274;51.992;8.518;2022-12-18T09:25:30;5.17;;;3.23;;
10452;SDS011;5274;51.992;8.518;2022-12-18T09:27:58;6.63;;;3.73;;
10452;SDS011;5274;51.992;8.518;2022-12-18T09:30:25;5.97;;;3.60;;
10452;SDS011;5274;51.992;8.518;2022-12-18T09:32:51;6.60;;;3.30;;
10452;SDS011;5274;51.992;8.518;2022-12-18T09:35:16;7.13;;;3.50;;
10452;SDS011;5274;51.992;8.518;2022-12-18T09:37:42;6.90;;;3.57;;
10452;SDS011;5274;51.992;8.518;2022-12-18T09:40:13;7.47;;;3.47;;
10452;SDS011;5274;51.992;8.518;2022-12-18T09:42:40;7.10;;;3.43;;
10452;SDS011;5274;51.992;8.518;2022-12-18T09:45:13;7.40;;;3.40;;
10452;SDS011;5274;51.992;8.518;2022-12-18T09:47:40;6.20;;;3.43;;
10452;SDS011;5274;51.992;8.518;2022-12-18T09:50:30;6.80;;;3.70;;
10452;SDS011;5274;51.992;8.518;2022-12-18T09:52:57;5.20;;;3.37;;
10452;SDS011;5274;51.992;8.518;2022-12-18T09:55:33;9.90;;;3.47;;
10452;SDS011;5274;51.992;8.518;2022-12-18T09:58:48;5.67;;;3.30;;
10452;SDS011;5274;51.992;8.518;2022-12-18T10:01:14;5.33;;;3.37;;
10452;SDS011;5274;51.992;8.518;2022-12-18T10:03:45;5.57;;;2.87;;
10452;SDS011;5274;51.992;8.518;2022-12-18T10:06:15;5.53;;;3.20;;
10452;SDS011;5274;51.992;8.518;2022-12-18T10:09:06;5.03;;;3.50;;
10452;SDS011;5274;51.992;8.518;2022-12-18T10:11:43;4.27;;;2.80;;
10452;SDS011;5274;51.992;8.518;2022-12-18T10:14:41;6.30;;;3.50;;
10452;SDS011;5274;51.992;8.518;2022-12-18T10:17:32;4.93;;;3.43;;
10452;SDS011;5274;51.992;8.518;2022-12-18T10:22:53;5.70;;;3.60;;
10452;SDS011;5274;51.992;8.518;2022-12-18T10:26:01;8.47;;;3.10;;
10452;SDS011;5274;51.992;8.518;2022-12-18T10:28:29;4.07;;;2.80;;
10452;SDS011;5274;51.992;8.518;2022-12-18T10:30:56;6.47;;;4.20;;
10452;SDS011;5274;51.992;8.518;2022-12-18T10:33:24;5.17;;;3.30;;
10452;SDS011;5274;51.992;8.518;2022-12-18T10:35:53;4.27;;;3.07;;
10452;SDS011;5274;51.992;8.518;2022-12-18T10:38:21;4.53;;;3.27;;
10452;SDS011;5274;51.992;8.518;2022-12-18T10:43:14;5.33;;;3.53;;
10452;SDS011;5274;51.992;8.518;2022-12-18T10:45:44;9.47;;;4.23;;
10452;SDS011;5274;51.992;8.518;2022-12-18T10:48:25;4.77;;;3.37;;
10452;SDS011;5274;51.992;8.518;2022-12-18T10:50:51;4.67;;;3.57;;
10452;SDS011;5274;51.992;8.518;2022-12-18T10:53:22;4.20;;;3.30;;
10452;SDS011;5274;51.992;8.518;2022-12-18T10:55:49;6.43;;;3.53;;
10452;SDS011;5274;51.992;8.518;2022-12-18T10:58:22;7.40;;;4.17;;
10452;SDS011;5274;51.992;8.518;2022-12-18T11:01:14;5.07;;;3.10;;
10452;SDS011;5274;51.992;8.518;2022-12-18T11:06:13;5.00;;;3.00;;
10452;SDS011;5274;51.992;8.518;2022-12-18T11:08:39;4.70;;;3.20;;
10452;SDS011;5274;51.992;8.518;2022-12-18T11:11:07;5.43;;;3.33;;
10452;SDS011;5274;51.992;8.518;2022-12-18T11:13:52;4.83;;;2.73;;
10452;SDS011;5274;51.992;8.518;2022-12-18T11:16:28;4.83;;;2.90;;
10452;SDS011;5274;51.992;8.518;2022-12-18T11:19:08;5.70;;;3.40;;
10452;SDS011;5274;51.992;8.518;2022-12-18T11:21:40;4.97;;;3.20;;
10452;SDS011;5274;51.992;8.518;2022-12-18T11:24:08;4.83;;;3.00;;
10452;SDS011;5274;51.992;8.518;2022-12-18T11:26:52;4.07;;;3.17;;
10452;SDS011;5274;51.992;8.518;2022-12-18T11:29:19;3.97;;;3.30;;
10452;SDS011;5274;51.992;8.518;2022-12-18T11:31:51;5.07;;;3.03;;
10452;SDS011;5274;51.992;8.518;2022-12-18T11:34:26;6.33;;;3.20;;
10452;SDS011;5274;51.992;8.518;2022-12-18T11:36:55;3.97;;;3.00;;
10452;SDS011;5274;51.992;8.518;2022-12-18T11:39:36;4.97;;;3.27;;
10452;SDS011;5274;51.992;8.518;2022-12-18T11:42:09;3.27;;;2.50;;
10452;SDS011;5274;51.992;8.518;2022-12-18T11:44:57;3.23;;;2.57;;
10452;SDS011;5274;51.992;8.518;2022-12-18T11:50:34;4.40;;;3.37;;
10452;SDS011;5274;51.992;8.518;2022-12-18T11:53:15;5.27;;;3.17;;
10452;SDS011;5274;51.992;8.518;2022-12-18T12:09:11;5.17;;;2.90;;
10452;SDS011;5274;51.992;8.518;2022-12-18T12:12:07;5.00;;;2.90;;
10452;SDS011;5274;51.992;8.518;2022-12-18T12:17:08;2.70;;;2.50;;
10452;SDS011;5274;51.992;8.518;2022-12-18T12:22:22;3.47;;;2.70;;
10452;SDS011;5274;51.992;8.518;2022-12-18T12:30:38;5.10;;;3.00;;
10452;SDS011;5274;51.992;8.518;2022-12-18T12:36:19;4.40;;;3.00;;
10452;SDS011;5274;51.992;8.518;2022-12-18T12:39:24;5.47;;;2.90;;
10452;SDS011;5274;51.992;8.518;2022-12-18T12:41:56;5.23;;;2.93;;
10452;SDS011;5274;51.992;8.518;2022-12-18T12:44:46;4.13;;;3.10;;
10452;SDS011;5274;51.992;8.518;2022-12-18T12:47:18;4.90;;;3.00;;
10452;SDS011;5274;51.992;8.518;2022-12-18T12:49:47;3.03;;;2.43;;
10452;SDS011;5274;51.992;8.518;2022-12-18T12:52:15;5.37;;;2.90;;
10452;SDS011;5274;51.992;8.518;2022-12-18T12:54:49;5.87;;;2.57;;
10452;SDS011;5274;51.992;8.518;2022-12-18T13:12:58;4.80;;;2.57;;
10452;SDS011;5274;51.992;8.518;2022-12-18T13:15:43;4.57;;;3.13;;
10452;SDS011;5274;51.992;8.518;2022-12-18T13:18:31;3.70;;;2.70;;
10452;SDS011;5274;51.992;8.518;2022-12-18T13:25:49;3.10;;;2.57;;
10452;SDS011;5274;51.992;8.518;2022-12-18T13:28:59;4.20;;;2.83;;
10452;SDS011;5274;51.992;8.518;2022-12-18T13:31:12;5.93;;;3.03;;
10452;SDS011;5274;51.992;8.518;2022-12-18T13:33:43;4.23;;;2.87;;
10452;SDS011;5274;51.992;8.518;2022-12-18T13:36:23;3.57;;;2.40;;
10452;SDS011;5274;51.992;8.518;2022-12-18T13:41:35;4.60;;;3.00;;
10452;SDS011;5274;51.992;8.518;2022-12-18T13:44:12;6.00;;;2.90;;
10452;SDS011;5274;51.992;8.518;2022-12-18T13:46:58;4.63;;;2.87;;
10452;SDS011;5274;51.992;8.518;2022-12-18T13:51:59;5.30;;;2.77;;
10452;SDS011;5274;51.992;8.518;2022-12-18T13:54:28;3.27;;;2.53;;
10452;SDS011;5274;51.992;8.518;2022-12-18T13:57:00;5.13;;;2.67;;
10452;SDS011;5274;51.992;8.518;2022-12-18T13:59:36;4.57;;;3.13;;
10452;SDS011;5274;51.992;8.518;2022-12-18T14:04:39;4.77;;;3.13;;
10452;SDS011;5274;51.992;8.518;2022-12-18T14:07:06;5.27;;;2.93;;
10452;SDS011;5274;51.992;8.518;2022-12-18T14:09:36;5.57;;;2.90;;
10452;SDS011;5274;51.992;8.518;2022-12-18T14:12:14;4.83;;;3.33;;
10452;SDS011;5274;51.992;8.518;2022-12-18T14:15:02;5.73;;;3.10;;
10452;SDS011;5274;51.992;8.518;2022-12-18T14:17:28;7.03;;;3.33;;
10452;SDS011;5274;51.992;8.518;2022-12-18T14:19:56;7.07;;;3.10;;
10452;SDS011;5274;51.992;8.518;2022-12-18T14:22:23;4.60;;;3.23;;
10452;SDS011;5274;51.992;8.518;2022-12-18T14:27:44;3.17;;;2.53;;
10452;SDS011;5274;51.992;8.518;2022-12-18T14:35:36;5.57;;;3.40;;
10452;SDS011;5274;51.992;8.518;2022-12-18T14:40:41;7.17;;;3.40;;
10452;SDS011;5274;51.992;8.518;2022-12-18T14:43:11;5.20;;;3.13;;
10452;SDS011;5274;51.992;8.518;2022-12-18T14:45:37;5.00;;;3.77;;
10452;SDS011;5274;51.992;8.518;2022-12-18T14:48:15;5.93;;;4.20;;
10452;SDS011;5274;51.992;8.518;2022-12-18T14:50:58;4.87;;;3.10;;
10452;SDS011;5274;51.992;8.518;2022-12-18T14:53:42;8.07;;;3.43;;
10452;SDS011;5274;51.992;8.518;2022-12-18T14:58:47;6.10;;;3.37;;
10452;SDS011;5274;51.992;8.518;2022-12-18T15:01:22;6.93;;;3.80;;
10452;SDS011;5274;51.992;8.518;2022-12-18T15:03:53;8.00;;;4.07;;
10452;SDS011;5274;51.992;8.518;2022-12-18T15:06:27;5.57;;;3.73;;
10452;SDS011;5274;51.992;8.518;2022-12-18T15:08:55;6.30;;;3.80;;
10452;SDS011;5274;51.992;8.518;2022-12-18T15:17:22;8.73;;;4.77;;
10452;SDS011;5274;51.992;8.518;2022-12-18T15:19:50;6.37;;;4.10;;
10452;SDS011;5274;51.992;8.518;2022-12-18T15:22:24;10.67;;;5.00;;
10452;SDS011;5274;51.992;8.518;2022-12-18T15:24:51;7.67;;;4.20;;
10452;SDS011;5274;51.992;8.518;2022-12-18T15:27:20;6.40;;;3.90;;
10452;SDS011;5274;51.992;8.518;2022-12-18T15:29:59;6.07;;;4.40;;
10452;SDS011;5274;51.992;8.518;2022-12-18T15:32:25;5.67;;;4.13;;
10452;SDS011;5274;51.992;8.518;2022-12-18T15:35:01;7.37;;;4.83;;
10452;SDS011;5274;51.992;8.518;2022-12-18T15:37:36;8.60;;;5.20;;
10452;SDS011;5274;51.992;8.518;2022-12-18T15:40:02;7.37;;;4.60;;
10452;SDS011;5274;51.992;8.518;2022-12-18T15:42:29;7.00;;;4.77;;
10452;SDS011;5274;51.992;8.518;2022-12-18T15:45:13;8.83;;;5.80;;
10452;SDS011;5274;51.992;8.518;2022-12-18T15:47:39;7.93;;;5.03;;
10452;SDS011;5274;51.992;8.518;2022-12-18T15:50:06;10.43;;;5.13;;
10452;SDS011;5274;51.992;8.518;2022-12-18T15:52:35;11.03;;;5.47;;
10452;SDS011;5274;51.992;8.518;2022-12-18T15:55:10;8.13;;;4.73;;
10452;SDS011;5274;51.992;8.518;2022-12-18T15:57:58;8.80;;;5.63;;
10452;SDS011;5274;51.992;8.518;2022-12-18T16:00:23;9.57;;;5.20;;
10452;SDS011;5274;51.992;8.518;2022-12-18T16:02:49;11.70;;;6.17;;
10452;SDS011;5274;51.992;8.518;2022-12-18T16:05:15;6.87;;;4.60;;
10452;SDS011;5274;51.992;8.518;2022-12-18T16:07:42;7.00;;;4.63;;
10452;SDS011;5274;51.992;8.518;2022-12-18T16:10:09;9.57;;;5.67;;
10452;SDS011;5274;51.992;8.518;2022-12-18T16:12:35;9.93;;;5.60;;
10452;SDS011;5274;51.992;8.518;2022-12-18T16:15:01;9.83;;;6.13;;
10452;SDS011;5274;51.992;8.518;2022-12-18T16:17:28;6.90;;;4.83;;
10452;SDS011;5274;51.992;8.518;2022-12-18T16:19:53;8.93;;;4.97;;
10452;SDS011;5274;51.992;8.518;2022-12-18T16:22:23;11.10;;;5.57;;
10452;SDS011;5274;51.992;8.518;2022-12-18T16:24:50;10.13;;;5.27;;
10452;SDS011;5274;51.992;8.518;2022-12-18T16:27:17;10.23;;;5.83;;
10452;SDS011;5274;51.992;8.518;2022-12-18T16:29:43;11.63;;;5.87;;
10452;SDS011;5274;51.992;8.518;2022-12-18T16:32:11;10.20;;;6.03;;
10452;SDS011;5274;51.992;8.518;2022-12-18T16:34:39;9.73;;;5.37;;
10452;SDS011;5274;51.992;8.518;2022-12-18T16:37:05;9.30;;;6.07;;
10452;SDS011;5274;51.992;8.518;2022-12-18T16:39:35;11.50;;;6.67;;
10452;SDS011;5274;51.992;8.518;2022-12-18T16:42:02;9.73;;;5.93;;
10452;SDS011;5274;51.992;8.518;2022-12-18T16:44:29;10.70;;;6.47;;
10452;SDS011;5274;51.992;8.518;2022-12-18T16:46:55;11.17;;;6.00;;
10452;SDS011;5274;51.992;8.518;2022-12-18T16:49:26;11.43;;;5.70;;
10452;SDS011;5274;51.992;8.518;2022-12-18T16:51:52;11.47;;;6.03;;
10452;SDS011;5274;51.992;8.518;2022-12-18T16:54:18;11.17;;;6.03;;
10452;SDS011;5274;51.992;8.518;2022-12-18T16:56:44;9.37;;;5.87;;
10452;SDS011;5274;51.992;8.518;2022-12-18T16:59:13;10.53;;;5.80;;
10452;SDS011;5274;51.992;8.518;2022-12-18T17:01:39;8.93;;;5.70;;
10452;SDS011;5274;51.992;8.518;2022-12-18T17:04:05;10.33;;;6.40;;
10452;SDS011;5274;51.992;8.518;2022-12-18T17:06:32;10.63;;;6.53;;